Time;durP1;ratioP1;P1;durP2;ratioP2;P2;SDS_P1;SDS_P2;PMS_P1;PMS_P2;Temp;Humidity;BMP_temperature;BMP_pressure;BME280_temperature;BME280_humidity;BME280_pressure;Samples;Min_cycle;Max_cycle;Signal;HPM_P1;HPM_P2
2022/12/26 00:01:40;;;;;;;0.27;0.27;;;5.80;99.90;;;;;;5065115;28;20223;-77
2022/12/26 00:04:06;;;;;;;0.30;0.30;;;5.70;99.90;;;;;;5065933;28;20452;-76
2022/12/26 00:06:32;;;;;;;0.20;0.20;;;5.80;99.90;;;;;;5064368;28;20472;-76
2022/12/26 00:08:58;;;;;;;0.20;0.20;;;5.90;99.90;;;;;;5065851;28;20193;-76
2022/12/26 00:11:24;;;;;;;0.20;0.20;;;5.90;99.90;;;;;;5063123;28;20452;-77
2022/12/26 00:13:56;;;;;;;0.20;0.20;;;5.90;99.90;;;;;;5068104;28;20451;-76
2022/12/26 00:16:22;;;;;;;0.30;0.30;;;5.80;99.90;;;;;;5059705;28;20313;-76
2022/12/26 00:18:48;;;;;;;0.20;0.20;;;5.80;99.90;;;;;;5064501;28;20455;-76
2022/12/26 00:21:15;;;;;;;0.20;0.20;;;5.80;99.90;;;;;;5064903;28;20451;-76
2022/12/26 00:23:41;;;;;;;0.20;0.20;;;5.90;99.90;;;;;;5067091;28;20449;-76
2022/12/26 00:26:14;;;;;;;0.20;0.20;;;5.90;99.90;;;;;;5057912;28;20534;-76
2022/12/26 00:28:40;;;;;;;0.20;0.20;;;5.90;99.90;;;;;;5058121;28;20803;-76
2022/12/26 00:31:10;;;;;;;0.20;0.20;;;5.90;99.90;;;;;;5065064;28;20479;-76
2022/12/26 00:33:37;;;;;;;0.20;0.20;;;5.90;99.90;;;;;;5068195;28;20474;-77
2022/12/26 00:36:14;;;;;;;0.20;0.20;;;5.80;99.90;;;;;;5064077;28;20992;-76
2022/12/26 00:38:41;;;;;;;0.20;0.20;;;5.90;99.90;;;;;;5063455;28;20492;-76
2022/12/26 00:41:08;;;;;;;0.20;0.20;;;5.90;99.90;;;;;;5065637;28;20513;-76
2022/12/26 00:43:34;;;;;;;0.20;0.20;;;5.90;99.90;;;;;;5064833;28;20444;-76
2022/12/26 00:46:00;;;;;;;0.20;0.20;;;5.90;99.90;;;;;;5063281;28;21039;-76
2022/12/26 00:48:25;;;;;;;0.20;0.20;;;5.80;99.90;;;;;;5056609;28;20236;-76
2022/12/26 00:50:51;;;;;;;0.20;0.20;;;5.80;99.90;;;;;;5061721;28;20974;-76
2022/12/26 00:53:17;;;;;;;0.20;0.20;;;5.80;99.90;;;;;;5062303;28;20201;-76
2022/12/26 00:55:43;;;;;;;0.20;0.20;;;5.80;99.90;;;;;;5055999;28;20699;-75
2022/12/26 00:58:08;;;;;;;0.20;0.20;;;5.80;99.90;;;;;;5050964;28;20488;-76
2022/12/26 01:00:34;;;;;;;0.20;0.20;;;5.80;99.90;;;;;;5064440;28;20190;-77
2022/12/26 01:03:00;;;;;;;0.20;0.20;;;5.80;99.90;;;;;;5066455;28;20200;-76
2022/12/26 01:05:26;;;;;;;0.20;0.20;;;5.90;99.90;;;;;;5064569;28;20436;-77
2022/12/26 01:07:52;;;;;;;0.30;0.30;;;5.80;99.90;;;;;;5063029;28;20444;-76
2022/12/26 01:10:17;;;;;;;0.20;0.20;;;5.90;99.90;;;;;;5064876;28;20186;-77
2022/12/26 01:12:43;;;;;;;0.30;0.30;;;5.80;99.90;;;;;;5064061;28;20194;-76
2022/12/26 01:15:09;;;;;;;0.20;0.20;;;5.80;99.90;;;;;;5063077;28;20282;-77
2022/12/26 01:17:34;;;;;;;0.20;0.20;;;5.80;99.90;;;;;;5066889;28;20228;-76
2022/12/26 01:20:01;;;;;;;0.20;0.20;;;5.80;99.90;;;;;;5064709;28;20443;-77
2022/12/26 01:22:27;;;;;;;0.20;0.20;;;5.80;99.90;;;;;;5067565;28;20194;-77
2022/12/26 01:24:54;;;;;;;0.20;0.20;;;5.90;99.90;;;;;;5060872;28;20452;-77
2022/12/26 01:27:20;;;;;;;0.20;0.20;;;5.80;99.90;;;;;;5083588;28;20487;-77
2022/12/26 01:29:45;;;;;;;0.30;0.30;;;5.90;99.90;;;;;;5059450;28;20477;-77
2022/12/26 01:32:11;;;;;;;0.30;0.30;;;5.90;99.90;;;;;;5065103;28;20201;-77
2022/12/26 01:34:36;;;;;;;0.30;0.30;;;5.90;99.90;;;;;;5065616;28;20621;-77
2022/12/26 01:37:02;;;;;;;0.20;0.20;;;5.90;99.90;;;;;;5054166;28;20750;-77
2022/12/26 01:39:29;;;;;;;0.30;0.30;;;5.90;99.90;;;;;;5061018;28;20264;-77
2022/12/26 01:41:54;;;;;;;0.30;0.30;;;5.90;99.90;;;;;;5067117;28;20280;-77
2022/12/26 01:44:51;;;;;;;0.20;0.20;;;6.00;99.90;;;;;;5066699;28;20559;-77
2022/12/26 01:47:18;;;;;;;0.20;0.20;;;5.90;99.90;;;;;;5064402;28;20181;-77
2022/12/26 01:49:48;;;;;;;0.20;0.20;;;5.90;99.90;;;;;;5056716;28;20531;-77
2022/12/26 01:52:35;;;;;;;0.30;0.30;;;5.90;99.90;;;;;;5068178;28;20472;-78
2022/12/26 01:55:03;;;;;;;0.30;0.30;;;5.90;99.90;;;;;;5063101;28;20435;-77
2022/12/26 01:57:34;;;;;;;0.20;0.20;;;5.90;99.90;;;;;;5061688;28;21085;-77
2022/12/26 02:00:01;;;;;;;0.20;0.20;;;6.00;99.90;;;;;;5064310;28;20943;-77
2022/12/26 02:02:28;;;;;;;0.30;0.30;;;6.00;99.90;;;;;;5061920;28;20962;-77
2022/12/26 02:07:42;;;;;;;0.30;0.30;;;5.90;99.90;;;;;;5065438;28;20550;-77
2022/12/26 02:10:13;;;;;;;0.30;0.30;;;5.90;99.90;;;;;;5058892;28;20963;-77
2022/12/26 02:12:39;;;;;;;0.30;0.30;;;5.90;99.90;;;;;;5064731;28;20436;-77
2022/12/26 02:15:12;;;;;;;0.20;0.20;;;5.90;99.90;;;;;;5062325;28;20513;-76
2022/12/26 02:17:39;;;;;;;0.30;0.30;;;6.00;99.90;;;;;;5058125;28;20961;-76
2022/12/26 02:20:26;;;;;;;0.20;0.20;;;5.90;99.90;;;;;;5070063;28;20444;-76
2022/12/26 02:23:04;;;;;;;0.20;0.20;;;6.00;99.90;;;;;;5068481;28;20444;-76
2022/12/26 02:25:48;;;;;;;0.30;0.30;;;6.00;99.90;;;;;;5063236;28;20440;-76
2022/12/26 02:28:48;;;;;;;0.20;0.20;;;6.00;99.90;;;;;;5067886;28;20599;-76
2022/12/26 02:31:40;;;;;;;0.30;0.30;;;6.00;99.90;;;;;;5057387;28;20463;-77
2022/12/26 02:34:16;;;;;;;0.20;0.20;;;6.00;99.90;;;;;;5068255;28;20959;-76
2022/12/26 02:36:58;;;;;;;0.20;0.20;;;6.10;99.90;;;;;;5068066;28;20532;-76
2022/12/26 02:39:37;;;;;;;0.20;0.20;;;6.00;99.90;;;;;;5064526;28;20443;-76
2022/12/26 02:42:29;;;;;;;0.20;0.20;;;6.00;99.90;;;;;;5068464;28;20442;-76
2022/12/26 02:48:38;;;;;;;0.30;0.30;;;6.10;99.90;;;;;;5067861;28;20528;-77
2022/12/26 03:15:25;;;;;;;0.30;0.30;;;6.20;99.90;;;;;;5060602;28;20591;-76
2022/12/26 03:18:02;;;;;;;0.30;0.30;;;6.20;99.90;;;;;;5067891;28;20476;-77
2022/12/26 03:20:37;;;;;;;0.30;0.30;;;6.20;99.90;;;;;;5069287;28;20451;-77
2022/12/26 03:23:10;;;;;;;0.30;0.30;;;6.20;99.90;;;;;;5066069;28;22084;-77
2022/12/26 03:28:24;;;;;;;0.20;0.20;;;6.30;99.90;;;;;;5067524;28;20475;-77
2022/12/26 03:30:50;;;;;;;0.20;0.20;;;6.30;99.90;;;;;;5066489;28;20871;-77
2022/12/26 03:36:12;;;;;;;0.30;0.30;;;6.30;99.90;;;;;;5067641;28;20805;-77
2022/12/26 03:39:18;;;;;;;0.20;0.20;;;6.30;99.90;;;;;;5063325;28;20457;-76
2022/12/26 04:44:11;;;;;;;0.20;0.20;;;6.40;99.90;;;;;;5059462;28;20435;-77
2022/12/26 04:46:43;;;;;;;0.20;0.20;;;6.40;99.90;;;;;;5068887;28;20456;-77
2022/12/26 04:52:01;;;;;;;0.20;0.20;;;6.50;99.90;;;;;;5063917;28;20513;-77
2022/12/26 04:54:28;;;;;;;0.20;0.20;;;6.50;99.90;;;;;;5052756;28;20456;-77
2022/12/26 04:56:54;;;;;;;0.20;0.20;;;6.50;99.90;;;;;;5057882;28;21278;-77
2022/12/26 04:59:20;;;;;;;0.20;0.20;;;6.50;99.90;;;;;;5047689;28;20448;-77
2022/12/26 05:10:06;;;;;;;0.20;0.20;;;6.40;99.90;;;;;;5062956;28;20456;-77
2022/12/26 05:12:31;;;;;;;0.30;0.30;;;6.50;99.90;;;;;;5067242;28;20451;-77
2022/12/26 05:14:57;;;;;;;0.20;0.20;;;6.50;99.90;;;;;;5060087;28;20456;-77
2022/12/26 05:28:40;;;;;;;0.30;0.30;;;6.50;99.90;;;;;;5060193;28;20577;-77
2022/12/26 05:31:10;;;;;;;0.20;0.20;;;6.50;99.90;;;;;;5062392;28;20493;-77
2022/12/26 05:36:23;;;;;;;0.20;0.20;;;6.50;99.90;;;;;;5059968;28;20478;-77
2022/12/26 05:38:49;;;;;;;0.20;0.20;;;6.60;99.90;;;;;;5065630;28;20459;-77
2022/12/26 05:41:15;;;;;;;0.20;0.20;;;6.60;99.90;;;;;;5062813;28;20436;-77
2022/12/26 05:43:40;;;;;;;0.30;0.30;;;6.60;99.90;;;;;;5066843;28;20190;-77
2022/12/26 05:46:06;;;;;;;0.20;0.20;;;6.50;99.90;;;;;;5057795;28;20178;-76
2022/12/26 05:48:31;;;;;;;0.20;0.20;;;6.60;99.90;;;;;;5067254;28;20202;-76
2022/12/26 05:50:58;;;;;;;0.23;0.23;;;6.60;99.90;;;;;;5071100;28;20200;-77
2022/12/26 05:53:24;;;;;;;0.20;0.20;;;6.60;99.90;;;;;;5073590;28;20198;-76
2022/12/26 05:55:49;;;;;;;0.20;0.20;;;6.60;99.90;;;;;;5065750;28;20561;-77
2022/12/26 05:58:15;;;;;;;0.20;0.20;;;6.60;99.90;;;;;;5071604;28;20859;-76
2022/12/26 06:00:40;;;;;;;0.20;0.20;;;6.60;99.90;;;;;;5071056;28;20319;-77
2022/12/26 06:03:06;;;;;;;0.20;0.20;;;6.60;99.90;;;;;;5068693;28;20181;-76
2022/12/26 06:05:31;;;;;;;0.20;0.20;;;6.60;99.90;;;;;;5068948;28;20639;-77
2022/12/26 06:07:57;;;;;;;0.20;0.20;;;6.60;99.90;;;;;;5069321;28;20260;-77
2022/12/26 06:10:25;;;;;;;0.30;0.30;;;6.60;99.90;;;;;;5064041;28;20209;-76
2022/12/26 06:12:50;;;;;;;0.20;0.20;;;6.60;99.90;;;;;;5068794;28;20228;-76
2022/12/26 06:15:16;;;;;;;0.20;0.20;;;6.70;99.90;;;;;;5064419;28;21020;-76
2022/12/26 06:17:41;;;;;;;0.27;0.27;;;6.60;99.90;;;;;;5073542;28;20209;-76
2022/12/26 06:20:07;;;;;;;0.20;0.20;;;6.60;99.90;;;;;;5066389;28;20268;-76
2022/12/26 06:22:33;;;;;;;0.30;0.30;;;6.60;99.90;;;;;;5073487;28;20182;-76
2022/12/26 06:24:58;;;;;;;0.20;0.20;;;6.60;99.90;;;;;;5067071;28;21203;-76
2022/12/26 06:27:24;;;;;;;0.20;0.20;;;6.60;99.90;;;;;;5064431;28;20198;-76
2022/12/26 06:29:49;;;;;;;0.30;0.30;;;6.60;99.90;;;;;;5067079;28;20189;-75
2022/12/26 06:32:14;;;;;;;0.30;0.30;;;6.70;99.90;;;;;;5060221;28;20928;-77
2022/12/26 06:34:40;;;;;;;0.30;0.30;;;6.70;99.90;;;;;;5063782;28;20206;-76
2022/12/26 06:37:06;;;;;;;0.30;0.30;;;6.70;99.90;;;;;;5066241;28;20297;-76
2022/12/26 06:39:31;;;;;;;0.30;0.30;;;6.70;99.90;;;;;;5067296;28;20231;-76
2022/12/26 06:41:57;;;;;;;0.20;0.20;;;6.70;99.90;;;;;;5070439;28;20201;-76
2022/12/26 06:44:22;;;;;;;0.27;0.27;;;6.70;99.90;;;;;;5061589;28;20189;-76
2022/12/26 06:46:48;;;;;;;0.20;0.20;;;6.70;99.90;;;;;;5059621;28;20197;-77
2022/12/26 06:49:13;;;;;;;0.30;0.30;;;6.70;99.90;;;;;;5064462;28;20736;-77
2022/12/26 06:51:39;;;;;;;0.20;0.20;;;6.70;99.90;;;;;;5061763;28;20186;-77
2022/12/26 06:54:05;;;;;;;0.20;0.20;;;6.70;99.90;;;;;;5057891;28;20218;-76
2022/12/26 06:56:33;;;;;;;0.30;0.30;;;6.70;99.90;;;;;;5065561;28;20492;-76
2022/12/26 06:59:00;;;;;;;0.20;0.20;;;6.70;99.90;;;;;;5062033;28;20182;-75
2022/12/26 07:01:27;;;;;;;0.20;0.20;;;6.70;99.90;;;;;;5067041;28;20443;-75
2022/12/26 07:03:54;;;;;;;0.20;0.20;;;6.70;99.90;;;;;;5064928;28;20451;-76
2022/12/26 07:06:28;;;;;;;0.20;0.20;;;6.70;99.90;;;;;;5069839;28;20519;-76
2022/12/26 07:09:05;;;;;;;0.20;0.20;;;6.70;99.90;;;;;;5060507;28;20475;-75
2022/12/26 07:11:33;;;;;;;0.20;0.20;;;6.80;99.90;;;;;;5063698;28;22787;-75
2022/12/26 07:13:58;;;;;;;0.30;0.30;;;6.80;99.90;;;;;;5069070;28;20534;-75
2022/12/26 07:16:25;;;;;;;0.30;0.30;;;6.70;99.90;;;;;;5065673;28;20907;-76
2022/12/26 07:18:55;;;;;;;0.30;0.30;;;6.70;99.90;;;;;;5070181;28;20783;-74
2022/12/26 07:21:22;;;;;;;0.20;0.20;;;6.70;99.90;;;;;;5061763;28;20527;-76
2022/12/26 07:23:48;;;;;;;0.20;0.20;;;6.70;99.90;;;;;;5063382;28;20532;-75
2022/12/26 07:26:14;;;;;;;0.30;0.30;;;6.70;99.90;;;;;;5062822;28;20448;-75
2022/12/26 07:28:40;;;;;;;0.30;0.30;;;6.70;99.90;;;;;;5063054;28;20444;-77
2022/12/26 07:31:05;;;;;;;0.30;0.30;;;6.80;99.90;;;;;;5063048;28;20265;-77
2022/12/26 07:33:31;;;;;;;0.20;0.20;;;6.80;99.90;;;;;;5060443;28;20286;-77
2022/12/26 07:36:05;;;;;;;0.20;0.20;;;6.80;99.90;;;;;;5063356;28;20178;-78
2022/12/26 07:38:31;;;;;;;0.20;0.20;;;7.00;99.90;;;;;;5068302;28;20245;-79
2022/12/26 07:40:57;;;;;;;0.20;0.20;;;7.00;99.90;;;;;;5060387;28;20524;-77
2022/12/26 07:43:24;;;;;;;0.23;0.23;;;7.00;99.90;;;;;;5062708;28;20448;-76
2022/12/26 07:45:52;;;;;;;0.20;0.20;;;6.90;99.90;;;;;;5061170;28;20437;-76
2022/12/26 07:48:17;;;;;;;0.23;0.23;;;6.90;99.90;;;;;;5066827;28;20444;-76
2022/12/26 07:50:46;;;;;;;0.30;0.30;;;6.90;99.90;;;;;;5061983;28;20454;-77
2022/12/26 07:53:12;;;;;;;0.30;0.30;;;6.90;99.90;;;;;;5067558;28;20680;-76
2022/12/26 07:55:38;;;;;;;0.30;0.30;;;6.90;99.90;;;;;;5068606;28;20467;-77
2022/12/26 07:58:03;;;;;;;0.30;0.30;;;6.90;99.90;;;;;;5066797;28;20526;-76
2022/12/26 08:00:29;;;;;;;0.30;0.30;;;6.90;99.90;;;;;;5063361;28;20670;-77
2022/12/26 08:02:54;;;;;;;0.30;0.30;;;6.90;99.90;;;;;;5062121;28;20193;-76
2022/12/26 08:05:20;;;;;;;0.20;0.20;;;6.90;99.90;;;;;;5065277;28;20184;-77
2022/12/26 08:07:47;;;;;;;0.20;0.20;;;6.90;99.90;;;;;;5070679;28;20190;-77
2022/12/26 08:10:13;;;;;;;0.30;0.30;;;6.90;99.90;;;;;;5065119;28;20650;-77
2022/12/26 08:12:39;;;;;;;0.20;0.20;;;6.90;99.90;;;;;;5066062;28;20452;-77
2022/12/26 08:15:05;;;;;;;0.20;0.20;;;6.90;99.90;;;;;;5064830;28;20467;-77
2022/12/26 08:17:31;;;;;;;0.20;0.20;;;7.00;99.90;;;;;;5066384;28;20720;-76
2022/12/26 08:19:57;;;;;;;0.20;0.20;;;7.00;99.90;;;;;;5066103;28;20563;-77
2022/12/26 08:22:22;;;;;;;0.20;0.20;;;6.90;99.90;;;;;;5069832;28;20550;-76
2022/12/26 08:24:48;;;;;;;0.30;0.30;;;7.00;99.90;;;;;;5061169;28;20181;-77
2022/12/26 08:27:14;;;;;;;0.30;0.30;;;7.00;99.90;;;;;;5063813;28;20230;-77
2022/12/26 08:29:40;;;;;;;0.30;0.30;;;7.00;99.90;;;;;;5064240;28;20269;-77
2022/12/26 08:32:05;;;;;;;0.20;0.20;;;7.00;99.90;;;;;;5066425;28;20544;-77
2022/12/26 08:34:34;;;;;;;0.20;0.20;;;7.00;99.90;;;;;;5059160;28;20594;-76
2022/12/26 08:37:00;;;;;;;0.30;0.30;;;7.00;99.90;;;;;;5053642;28;20289;-77
2022/12/26 08:39:26;;;;;;;0.30;0.30;;;7.00;99.90;;;;;;5060279;28;20541;-77
2022/12/26 08:41:52;;;;;;;0.20;0.20;;;7.00;99.90;;;;;;5064763;28;20536;-76
2022/12/26 08:44:17;;;;;;;0.20;0.20;;;7.00;99.90;;;;;;5060859;28;20255;-76
2022/12/26 08:46:44;;;;;;;0.30;0.30;;;7.00;99.90;;;;;;5062980;28;20201;-76
2022/12/26 08:49:10;;;;;;;0.20;0.20;;;7.10;99.90;;;;;;5066781;28;20190;-76
2022/12/26 08:51:35;;;;;;;0.20;0.20;;;7.10;99.90;;;;;;5067579;28;20861;-76
2022/12/26 08:54:01;;;;;;;0.20;0.20;;;7.10;99.90;;;;;;5065659;28;20226;-76
2022/12/26 08:56:27;;;;;;;0.30;0.30;;;7.20;99.90;;;;;;5066701;28;20315;-76
2022/12/26 08:58:53;;;;;;;0.20;0.20;;;7.20;99.90;;;;;;5063513;28;20450;-76
2022/12/26 09:01:25;;;;;;;0.20;0.20;;;7.20;99.90;;;;;;5067054;28;20436;-76
2022/12/26 09:03:55;;;;;;;0.20;0.20;;;7.30;99.90;;;;;;5063160;28;20490;-75
2022/12/26 09:06:21;;;;;;;0.20;0.20;;;7.30;99.90;;;;;;5063837;28;20528;-76
2022/12/26 09:08:47;;;;;;;0.30;0.30;;;7.20;99.90;;;;;;5064964;28;20989;-75
2022/12/26 09:11:27;;;;;;;0.20;0.20;;;7.20;99.90;;;;;;5054154;28;20467;-75
2022/12/26 09:13:54;;;;;;;0.20;0.20;;;7.30;99.90;;;;;;5063527;28;20551;-75
2022/12/26 09:16:25;;;;;;;0.20;0.20;;;7.30;99.90;;;;;;5060639;28;20521;-75
2022/12/26 09:18:59;;;;;;;0.20;0.20;;;7.30;99.90;;;;;;5060568;28;20444;-76
2022/12/26 09:21:26;;;;;;;0.20;0.20;;;7.30;99.90;;;;;;5067143;28;20855;-76
2022/12/26 09:23:57;;;;;;;0.20;0.20;;;7.30;99.90;;;;;;5057564;28;20442;-76
2022/12/26 09:26:23;;;;;;;0.20;0.20;;;7.30;99.90;;;;;;5064482;28;20439;-76
2022/12/26 09:28:49;;;;;;;0.20;0.20;;;7.30;99.90;;;;;;5065213;28;20888;-75
2022/12/26 09:31:18;;;;;;;0.20;0.20;;;7.40;99.90;;;;;;5065782;28;20186;-76
2022/12/26 09:33:45;;;;;;;0.20;0.20;;;7.40;99.90;;;;;;5064055;28;20194;-76
2022/12/26 09:36:20;;;;;;;0.23;0.23;;;7.40;99.90;;;;;;5060587;28;21010;-75
2022/12/26 09:38:47;;;;;;;0.20;0.20;;;7.40;99.90;;;;;;5065268;28;20463;-75
2022/12/26 09:41:31;;;;;;;0.30;0.30;;;7.40;99.90;;;;;;5068176;28;20505;-76
2022/12/26 09:44:00;;;;;;;0.20;0.20;;;7.50;99.90;;;;;;5061263;28;20443;-76
2022/12/26 09:46:33;;;;;;;0.20;0.20;;;7.50;99.90;;;;;;5057817;28;20483;-76
2022/12/26 09:49:25;;;;;;;0.20;0.20;;;7.50;99.90;;;;;;5058661;28;20484;-76
2022/12/26 09:51:55;;;;;;;0.20;0.20;;;7.60;99.90;;;;;;5061120;28;20525;-76
2022/12/26 09:54:31;;;;;;;0.20;0.20;;;7.60;99.90;;;;;;5059120;28;20509;-76
2022/12/26 09:57:00;;;;;;;0.30;0.30;;;7.70;99.90;;;;;;5054211;28;20474;-76
2022/12/26 09:59:26;;;;;;;0.20;0.20;;;7.70;99.90;;;;;;5056344;28;20425;-77
2022/12/26 10:01:52;;;;;;;0.20;0.20;;;7.70;99.90;;;;;;5057753;28;20436;-74
2022/12/26 10:04:28;;;;;;;0.30;0.30;;;7.70;99.90;;;;;;5060509;28;20213;-77
2022/12/26 10:07:33;;;;;;;0.20;0.20;;;7.70;99.90;;;;;;5059409;28;20927;-77
2022/12/26 10:10:25;;;;;;;0.20;0.20;;;7.80;99.90;;;;;;5061703;28;20444;-77
2022/12/26 10:13:04;;;;;;;0.20;0.20;;;7.90;99.90;;;;;;5066258;28;20452;-77
2022/12/26 10:15:51;;;;;;;0.20;0.20;;;7.90;99.90;;;;;;5062079;28;20850;-77
2022/12/26 10:18:35;;;;;;;0.20;0.20;;;7.90;99.90;;;;;;5062658;28;20483;-75
2022/12/26 10:21:41;;;;;;;0.30;0.30;;;7.90;99.90;;;;;;5065783;28;20473;-78
2022/12/26 10:24:18;;;;;;;0.20;0.20;;;8.00;99.90;;;;;;5001687;28;20462;-77
2022/12/26 10:26:51;;;;;;;0.20;0.20;;;8.10;99.90;;;;;;5002334;28;20454;-78
2022/12/26 10:29:26;;;;;;;0.20;0.20;;;8.10;99.90;;;;;;5040594;28;20961;-78
2022/12/26 10:31:54;;;;;;;0.20;0.20;;;8.10;99.90;;;;;;5053634;28;20456;-77
2022/12/26 10:34:35;;;;;;;0.20;0.20;;;8.00;99.90;;;;;;5061001;28;20440;-77
2022/12/26 10:37:09;;;;;;;0.20;0.20;;;8.10;99.90;;;;;;5061068;28;20529;-77
2022/12/26 10:39:50;;;;;;;0.20;0.20;;;8.10;99.90;;;;;;5058385;28;22428;-77
2022/12/26 10:42:28;;;;;;;0.20;0.20;;;8.10;99.90;;;;;;5060845;28;20448;-77
2022/12/26 10:44:54;;;;;;;0.20;0.20;;;8.10;99.90;;;;;;5059908;28;20483;-78
2022/12/26 10:47:31;;;;;;;0.20;0.20;;;8.10;99.90;;;;;;5062468;28;20448;-77
2022/12/26 10:49:58;;;;;;;0.20;0.20;;;8.10;99.90;;;;;;5066394;28;20186;-77
2022/12/26 10:52:32;;;;;;;0.20;0.20;;;8.20;99.90;;;;;;5066672;28;20448;-76
2022/12/26 10:54:59;;;;;;;0.20;0.20;;;8.30;99.90;;;;;;5066858;28;20468;-76
2022/12/26 10:57:28;;;;;;;0.20;0.20;;;8.40;99.90;;;;;;5065625;28;20480;-76
2022/12/26 10:59:55;;;;;;;0.20;0.20;;;8.40;99.90;;;;;;5058439;28;20472;-76
2022/12/26 11:02:23;;;;;;;0.20;0.20;;;8.30;99.90;;;;;;5058959;28;20550;-76
2022/12/26 11:05:07;;;;;;;0.20;0.20;;;8.30;99.90;;;;;;5063100;28;20441;-76
2022/12/26 11:07:36;;;;;;;0.20;0.20;;;8.30;99.90;;;;;;5064607;28;20559;-77
2022/12/26 11:10:04;;;;;;;0.20;0.20;;;8.40;99.90;;;;;;5069676;28;20497;-77
2022/12/26 11:12:39;;;;;;;0.20;0.20;;;8.30;99.90;;;;;;5065453;28;20505;-76
2022/12/26 11:15:25;;;;;;;0.20;0.20;;;8.40;99.90;;;;;;5061933;28;20915;-77
2022/12/26 11:17:52;;;;;;;0.20;0.20;;;8.40;99.90;;;;;;5062029;28;20642;-76
2022/12/26 11:20:26;;;;;;;0.20;0.20;;;8.40;99.90;;;;;;5070455;28;20440;-77
2022/12/26 11:22:52;;;;;;;0.20;0.20;;;8.40;99.90;;;;;;5069223;28;20545;-76
2022/12/26 11:25:24;;;;;;;0.20;0.20;;;8.40;99.90;;;;;;5061255;28;20962;-77
2022/12/26 11:27:51;;;;;;;0.20;0.20;;;8.40;99.90;;;;;;5065520;28;20489;-76
2022/12/26 11:30:37;;;;;;;0.20;0.20;;;8.50;99.90;;;;;;5064447;28;20452;-77
2022/12/26 11:33:04;;;;;;;0.20;0.20;;;8.40;99.90;;;;;;5058885;28;20433;-76
2022/12/26 11:35:35;;;;;;;0.20;0.20;;;8.40;99.90;;;;;;5066067;28;20445;-76
2022/12/26 11:38:03;;;;;;;0.20;0.20;;;8.50;99.90;;;;;;5066011;28;20483;-77
2022/12/26 11:40:34;;;;;;;0.20;0.20;;;8.60;99.90;;;;;;5058794;28;20528;-76
2022/12/26 11:43:03;;;;;;;0.20;0.20;;;8.60;99.90;;;;;;5050744;28;20956;-76
2022/12/26 11:45:35;;;;;;;0.20;0.20;;;8.50;99.90;;;;;;5051909;28;20926;-76
2022/12/26 11:48:01;;;;;;;0.20;0.20;;;8.50;99.90;;;;;;5058649;28;21182;-78
2022/12/26 11:50:29;;;;;;;0.20;0.20;;;8.50;99.90;;;;;;5067369;28;20443;-77
2022/12/26 11:52:54;;;;;;;0.20;0.20;;;8.50;99.90;;;;;;5062029;28;20247;-75
2022/12/26 11:55:28;;;;;;;0.20;0.20;;;8.50;99.90;;;;;;5054789;28;20440;-75
2022/12/26 11:58:09;;;;;;;0.20;0.20;;;8.50;99.90;;;;;;5055689;28;20245;-75
2022/12/26 12:00:49;;;;;;;0.20;0.20;;;8.60;99.90;;;;;;5059515;28;20448;-76
2022/12/26 12:03:18;;;;;;;0.20;0.20;;;8.60;99.90;;;;;;5056451;28;20438;-77
2022/12/26 12:06:13;;;;;;;0.20;0.20;;;8.60;99.90;;;;;;5062702;28;20437;-76
2022/12/26 12:09:05;;;;;;;0.20;0.20;;;8.50;99.90;;;;;;5062351;28;20544;-76
2022/12/26 12:11:55;;;;;;;0.20;0.20;;;8.40;99.90;;;;;;5046888;28;20473;-76
2022/12/26 12:14:49;;;;;;;0.20;0.20;;;8.30;99.90;;;;;;5060021;28;20443;-77
2022/12/26 12:17:34;;;;;;;0.20;0.20;;;8.30;99.90;;;;;;5046989;28;20820;-76
2022/12/26 12:20:12;;;;;;;0.20;0.20;;;8.20;99.90;;;;;;5057674;28;20460;-75
2022/12/26 12:23:03;;;;;;;0.30;0.30;;;8.20;99.90;;;;;;5064321;28;21068;-75
2022/12/26 12:26:06;;;;;;;0.20;0.20;;;8.20;99.90;;;;;;5068148;28;21201;-76
2022/12/26 12:28:48;;;;;;;0.20;0.20;;;8.20;99.90;;;;;;5065347;28;20450;-76
2022/12/26 12:31:36;;;;;;;0.20;0.20;;;8.20;99.90;;;;;;5062905;28;20448;-76
2022/12/26 12:34:40;;;;;;;0.20;0.20;;;8.30;99.90;;;;;;5065808;28;20445;-77
2022/12/26 12:37:37;;;;;;;0.30;0.30;;;8.30;99.90;;;;;;5061290;28;20460;-75
2022/12/26 12:40:37;;;;;;;0.20;0.20;;;8.30;99.90;;;;;;5058225;28;20443;-74
2022/12/26 12:43:24;;;;;;;0.20;0.20;;;8.30;99.90;;;;;;5057354;28;20531;-75
2022/12/26 12:46:19;;;;;;;0.20;0.20;;;8.30;99.90;;;;;;5057210;28;20451;-78
2022/12/26 12:49:09;;;;;;;0.20;0.20;;;8.30;99.90;;;;;;5061655;28;20849;-78
2022/12/26 12:51:53;;;;;;;0.20;0.20;;;8.30;99.90;;;;;;5066095;28;20493;-78
2022/12/26 12:54:55;;;;;;;0.23;0.23;;;8.30;99.90;;;;;;5053342;28;20469;-78
2022/12/26 12:57:52;;;;;;;0.20;0.20;;;8.40;99.90;;;;;;5060838;28;20484;-79
2022/12/26 13:00:26;;;;;;;0.20;0.20;;;8.40;99.90;;;;;;5028871;28;21015;-77
2022/12/26 13:03:17;;;;;;;0.20;0.20;;;8.40;99.90;;;;;;5058566;28;20456;-78
2022/12/26 13:05:49;;;;;;;0.20;0.20;;;8.30;99.90;;;;;;5062310;28;20440;-79
2022/12/26 13:08:24;;;;;;;0.20;0.20;;;8.30;99.90;;;;;;5053425;28;20959;-78
2022/12/26 13:10:57;;;;;;;0.20;0.20;;;8.20;99.90;;;;;;5063929;28;20974;-78
2022/12/26 13:13:34;;;;;;;0.20;0.20;;;8.10;99.90;;;;;;5063914;28;20779;-78
2022/12/26 13:16:10;;;;;;;0.20;0.20;;;8.00;99.90;;;;;;5063293;28;20487;-77
2022/12/26 13:18:43;;;;;;;0.20;0.20;;;8.00;99.90;;;;;;5058520;28;20572;-77
2022/12/26 13:21:11;;;;;;;0.20;0.20;;;7.90;99.90;;;;;;5056875;28;20471;-78
2022/12/26 13:26:43;;;;;;;0.30;0.30;;;7.90;99.90;;;;;;5061146;28;20447;-78
2022/12/26 13:29:18;;;;;;;0.30;0.30;;;7.80;99.90;;;;;;5061322;28;20449;-79
2022/12/26 13:31:44;;;;;;;0.20;0.20;;;7.90;99.90;;;;;;5053025;28;20436;-77
2022/12/26 13:34:17;;;;;;;0.30;0.30;;;7.90;99.90;;;;;;5062580;28;20455;-77
2022/12/26 13:36:48;;;;;;;0.20;0.20;;;7.60;99.90;;;;;;5057973;28;20480;-77
2022/12/26 13:39:27;;;;;;;0.20;0.20;;;7.50;99.90;;;;;;5063506;28;20456;-77
2022/12/26 13:44:51;;;;;;;0.30;0.30;;;7.30;99.90;;;;;;5053319;28;20549;-77
2022/12/26 13:47:38;;;;;;;0.30;0.30;;;7.30;99.90;;;;;;5053876;28;20448;-78
2022/12/26 13:50:41;;;;;;;0.20;0.20;;;7.30;99.90;;;;;;5065861;28;20444;-78
2022/12/26 13:53:24;;;;;;;0.30;0.30;;;7.30;99.90;;;;;;5064224;28;20456;-78
2022/12/26 13:55:57;;;;;;;0.30;0.30;;;7.20;99.90;;;;;;5061811;28;20435;-77
2022/12/26 13:58:28;;;;;;;0.30;0.30;;;7.20;99.90;;;;;;5057408;28;20530;-77
2022/12/26 14:01:08;;;;;;;0.30;0.30;;;7.00;99.90;;;;;;5055297;28;20440;-76
2022/12/26 14:04:06;;;;;;;0.30;0.30;;;6.90;99.90;;;;;;5061966;28;20440;-77
2022/12/26 14:06:58;;;;;;;0.30;0.30;;;6.70;99.90;;;;;;5061455;28;20452;-78
2022/12/26 14:09:51;;;;;;;0.20;0.20;;;6.60;99.90;;;;;;5056878;28;20806;-77
2022/12/26 14:12:19;;;;;;;0.30;0.30;;;6.50;99.90;;;;;;5061976;28;20443;-76
2022/12/26 14:14:54;;;;;;;0.20;0.20;;;6.40;99.90;;;;;;5065878;28;20476;-76
2022/12/26 14:17:47;;;;;;;0.30;0.30;;;6.40;99.90;;;;;;5060087;28;20475;-77
2022/12/26 14:20:43;;;;;;;0.20;0.20;;;6.40;99.90;;;;;;5062059;28;20474;-77
2022/12/26 14:23:19;;;;;;;0.30;0.30;;;6.40;99.90;;;;;;5066082;28;20460;-77
2022/12/26 14:25:44;;;;;;;0.30;0.30;;;6.40;99.90;;;;;;5059221;28;20471;-78
2022/12/26 14:28:16;;;;;;;0.30;0.30;;;6.40;99.90;;;;;;5066587;28;20582;-77
2022/12/26 14:31:11;;;;;;;0.30;0.30;;;6.40;99.90;;;;;;5063922;28;20193;-77
2022/12/26 14:33:59;;;;;;;0.30;0.30;;;6.30;99.90;;;;;;5065670;28;20440;-77
2022/12/26 14:36:50;;;;;;;0.30;0.30;;;6.30;99.90;;;;;;5069116;28;20955;-77
2022/12/26 14:39:31;;;;;;;0.30;0.30;;;6.10;99.90;;;;;;5067724;28;20842;-77
2022/12/26 14:44:52;;;;;;;0.30;0.30;;;6.10;99.90;;;;;;5063496;28;20451;-77
2022/12/26 14:47:43;;;;;;;0.30;0.30;;;6.10;99.90;;;;;;5064307;28;20440;-77
2022/12/26 14:50:31;;;;;;;0.20;0.20;;;6.10;99.90;;;;;;5052517;28;20452;-77
2022/12/26 14:53:18;;;;;;;0.30;0.30;;;6.00;99.90;;;;;;5065705;28;20435;-77
2022/12/26 14:55:56;;;;;;;0.30;0.30;;;6.00;99.90;;;;;;5061750;28;20459;-75
2022/12/26 14:58:34;;;;;;;0.30;0.30;;;6.00;99.90;;;;;;5060096;28;20483;-76
2022/12/26 15:01:12;;;;;;;0.20;0.20;;;6.00;99.90;;;;;;5057540;28;20431;-76
2022/12/26 15:03:58;;;;;;;0.20;0.20;;;6.00;99.90;;;;;;5060589;28;20444;-77
2022/12/26 15:06:47;;;;;;;0.30;0.30;;;6.00;99.90;;;;;;5059544;28;20539;-77
2022/12/26 15:09:42;;;;;;;0.30;0.30;;;5.90;99.90;;;;;;5057204;28;20935;-76
2022/12/26 15:12:49;;;;;;;0.20;0.20;;;5.90;99.90;;;;;;5063806;28;21150;-78
2022/12/26 15:15:42;;;;;;;0.30;0.30;;;5.90;99.90;;;;;;5051852;28;20860;-75
2022/12/26 15:18:37;;;;;;;0.30;0.30;;;5.80;99.90;;;;;;5065039;28;20475;-78
2022/12/26 15:21:41;;;;;;;0.30;0.30;;;5.80;99.90;;;;;;5047600;28;20534;-76
2022/12/26 15:24:42;;;;;;;0.20;0.20;;;5.70;99.90;;;;;;5056135;28;20443;-75
2022/12/26 15:27:33;;;;;;;0.20;0.20;;;5.70;99.90;;;;;;5057429;28;20439;-76
2022/12/26 15:30:16;;;;;;;0.30;0.30;;;5.70;99.90;;;;;;5067520;28;20497;-80
2022/12/26 15:33:12;;;;;;;0.40;0.40;;;5.60;99.90;;;;;;5063077;28;20505;-78
2022/12/26 15:36:05;;;;;;;0.30;0.30;;;5.60;99.90;;;;;;5067480;28;20855;-78
2022/12/26 15:38:39;;;;;;;0.30;0.30;;;5.70;99.90;;;;;;5050622;28;20480;-77
2022/12/26 15:41:30;;;;;;;0.23;0.23;;;5.60;99.90;;;;;;5053980;28;20440;-77
2022/12/26 15:44:13;;;;;;;0.30;0.30;;;5.50;99.90;;;;;;5061199;28;20801;-76